sensor_id;sensor_type;location;lat;lon;timestamp;pressure;altitude;pressure_sealevel;temperature;humidity
25420;BME280;13354;48.174;11.566;2023-04-05T00:02:02;96119.91;;;1.51;56.19
25420;BME280;13354;48.174;11.566;2023-04-05T00:04:28;96109.97;;;1.45;56.79
25420;BME280;13354;48.174;11.566;2023-04-05T00:06:54;96109.38;;;1.41;57.37
25420;BME280;13354;48.174;11.566;2023-04-05T00:09:22;96113.19;;;1.37;57.30
25420;BME280;13354;48.174;11.566;2023-04-05T00:11:47;96108.22;;;1.34;57.17
25420;BME280;13354;48.174;11.566;2023-04-05T00:14:12;96106.09;;;1.28;57.29
25420;BME280;13354;48.174;11.566;2023-04-05T00:16:37;96107.19;;;1.26;57.33
25420;BME280;13354;48.174;11.566;2023-04-05T00:19:03;96107.44;;;1.23;57.17
25420;BME280;13354;48.174;11.566;2023-04-05T00:21:29;96096.88;;;1.24;57.67
25420;BME280;13354;48.174;11.566;2023-04-05T00:23:55;96101.66;;;1.19;57.54
25420;BME280;13354;48.174;11.566;2023-04-05T00:26:24;96100.81;;;1.18;57.34
25420;BME280;13354;48.174;11.566;2023-04-05T00:28:49;96102.22;;;1.23;57.10
25420;BME280;13354;48.174;11.566;2023-04-05T00:31:15;96098.66;;;1.24;57.32
25420;BME280;13354;48.174;11.566;2023-04-05T00:33:40;96098.78;;;1.22;57.38
25420;BME280;13354;48.174;11.566;2023-04-05T00:38:34;96096.69;;;1.16;58.09
25420;BME280;13354;48.174;11.566;2023-04-05T00:40:59;96097.50;;;1.16;57.98
25420;BME280;13354;48.174;11.566;2023-04-05T00:43:25;96090.88;;;1.12;58.43
25420;BME280;13354;48.174;11.566;2023-04-05T00:45:50;96091.84;;;1.11;58.82
25420;BME280;13354;48.174;11.566;2023-04-05T00:48:15;96088.50;;;1.09;58.90
25420;BME280;13354;48.174;11.566;2023-04-05T00:50:41;96085.91;;;1.09;58.77
25420;BME280;13354;48.174;11.566;2023-04-05T00:53:07;96086.97;;;1.07;58.69
25420;BME280;13354;48.174;11.566;2023-04-05T00:55:33;96086.03;;;1.08;58.67
25420;BME280;13354;48.174;11.566;2023-04-05T00:57:58;96085.31;;;1.06;58.66
25420;BME280;13354;48.174;11.566;2023-04-05T01:00:23;96085.09;;;1.09;58.21
25420;BME280;13354;48.174;11.566;2023-04-05T01:02:57;96086.28;;;1.05;58.59
25420;BME280;13354;48.174;11.566;2023-04-05T01:10:34;96073.69;;;1.10;58.56
25420;BME280;13354;48.174;11.566;2023-04-05T01:13:02;96073.63;;;1.00;59.17
25420;BME280;13354;48.174;11.566;2023-04-05T01:15:27;96070.50;;;1.06;58.73
25420;BME280;13354;48.174;11.566;2023-04-05T01:17:52;96064.84;;;1.01;59.41
25420;BME280;13354;48.174;11.566;2023-04-05T01:20:18;96064.84;;;1.01;59.16
25420;BME280;13354;48.174;11.566;2023-04-05T01:22:56;96060.69;;;0.99;59.68
25420;BME280;13354;48.174;11.566;2023-04-05T01:30:38;96050.88;;;0.91;60.01
25420;BME280;13354;48.174;11.566;2023-04-05T01:38:13;96052.53;;;0.92;60.39
25420;BME280;13354;48.174;11.566;2023-04-05T01:40:41;96045.09;;;0.87;59.90
25420;BME280;13354;48.174;11.566;2023-04-05T01:43:13;96048.78;;;0.85;60.60
25420;BME280;13354;48.174;11.566;2023-04-05T01:45:40;96041.06;;;0.83;60.31
25420;BME280;13354;48.174;11.566;2023-04-05T01:48:05;96045.31;;;0.84;60.28
25420;BME280;13354;48.174;11.566;2023-04-05T01:50:30;96036.44;;;0.87;60.75
25420;BME280;13354;48.174;11.566;2023-04-05T01:52:55;96034.22;;;0.82;60.82
25420;BME280;13354;48.174;11.566;2023-04-05T01:55:21;96037.78;;;0.81;61.06
25420;BME280;13354;48.174;11.566;2023-04-05T01:57:46;96030.78;;;0.82;60.53
25420;BME280;13354;48.174;11.566;2023-04-05T02:00:11;96033.50;;;0.80;60.57
25420;BME280;13354;48.174;11.566;2023-04-05T02:02:37;96028.19;;;0.82;60.43
25420;BME280;13354;48.174;11.566;2023-04-05T02:05:02;96029.97;;;0.81;61.01
25420;BME280;13354;48.174;11.566;2023-04-05T02:07:27;96025.69;;;0.80;61.26
25420;BME280;13354;48.174;11.566;2023-04-05T02:09:52;96029.25;;;0.79;60.88
25420;BME280;13354;48.174;11.566;2023-04-05T02:12:18;96030.31;;;0.77;60.82
25420;BME280;13354;48.174;11.566;2023-04-05T02:14:43;96027.69;;;0.77;61.13
25420;BME280;13354;48.174;11.566;2023-04-05T02:17:08;96027.13;;;0.73;61.50
25420;BME280;13354;48.174;11.566;2023-04-05T02:19:33;96022.16;;;0.70;61.22
25420;BME280;13354;48.174;11.566;2023-04-05T02:22:05;96022.63;;;0.75;61.06
25420;BME280;13354;48.174;11.566;2023-04-05T02:24:30;96016.69;;;0.73;61.04
25420;BME280;13354;48.174;11.566;2023-04-05T02:26:55;96017.41;;;0.75;61.07
25420;BME280;13354;48.174;11.566;2023-04-05T02:29:21;96020.97;;;0.74;60.79
25420;BME280;13354;48.174;11.566;2023-04-05T02:31:46;96014.69;;;0.65;61.17
25420;BME280;13354;48.174;11.566;2023-04-05T02:34:11;96014.84;;;0.64;60.96
25420;BME280;13354;48.174;11.566;2023-04-05T02:36:38;96020.53;;;0.58;60.79
25420;BME280;13354;48.174;11.566;2023-04-05T02:39:03;96015.31;;;0.58;60.79
25420;BME280;13354;48.174;11.566;2023-04-05T02:41:28;96016.03;;;0.60;61.11
25420;BME280;13354;48.174;11.566;2023-04-05T02:43:53;96017.19;;;0.67;60.95
25420;BME280;13354;48.174;11.566;2023-04-05T02:46:19;96011.28;;;0.65;60.79
25420;BME280;13354;48.174;11.566;2023-04-05T02:48:44;96004.91;;;0.58;61.84
25420;BME280;13354;48.174;11.566;2023-04-05T02:51:09;96009.28;;;0.57;61.61
25420;BME280;13354;48.174;11.566;2023-04-05T02:53:35;96003.00;;;0.60;62.17
25420;BME280;13354;48.174;11.566;2023-04-05T02:56:00;96007.13;;;0.62;61.79
25420;BME280;13354;48.174;11.566;2023-04-05T02:58:25;96004.53;;;0.62;61.94
25420;BME280;13354;48.174;11.566;2023-04-05T03:00:51;95999.59;;;0.59;61.75
25420;BME280;13354;48.174;11.566;2023-04-05T03:03:20;95996.84;;;0.61;61.50
25420;BME280;13354;48.174;11.566;2023-04-05T03:05:46;95994.59;;;0.56;61.98
25420;BME280;13354;48.174;11.566;2023-04-05T03:08:12;95998.72;;;0.59;61.71
25420;BME280;13354;48.174;11.566;2023-04-05T03:10:43;96003.34;;;0.55;62.49
25420;BME280;13354;48.174;11.566;2023-04-05T03:13:09;95999.09;;;0.54;62.51
25420;BME280;13354;48.174;11.566;2023-04-05T03:15:34;95994.84;;;0.53;62.31
25420;BME280;13354;48.174;11.566;2023-04-05T03:18:00;95994.47;;;0.58;62.32
25420;BME280;13354;48.174;11.566;2023-04-05T03:20:25;95986.22;;;0.53;62.42
25420;BME280;13354;48.174;11.566;2023-04-05T03:22:50;95991.66;;;0.50;62.37
25420;BME280;13354;48.174;11.566;2023-04-05T03:25:16;95990.13;;;0.47;62.84
25420;BME280;13354;48.174;11.566;2023-04-05T03:27:41;95994.41;;;0.48;63.39
25420;BME280;13354;48.174;11.566;2023-04-05T03:30:06;95991.53;;;0.51;63.17
25420;BME280;13354;48.174;11.566;2023-04-05T03:32:32;95993.69;;;0.46;62.42
25420;BME280;13354;48.174;11.566;2023-04-05T03:34:57;95983.41;;;0.44;62.39
25420;BME280;13354;48.174;11.566;2023-04-05T03:37:22;95990.72;;;0.39;63.02
25420;BME280;13354;48.174;11.566;2023-04-05T03:39:47;95991.22;;;0.44;63.13
25420;BME280;13354;48.174;11.566;2023-04-05T03:42:12;95984.56;;;0.40;62.98
25420;BME280;13354;48.174;11.566;2023-04-05T03:44:40;95985.91;;;0.35;63.19
25420;BME280;13354;48.174;11.566;2023-04-05T03:47:05;95984.25;;;0.34;63.48
25420;BME280;13354;48.174;11.566;2023-04-05T03:49:30;95981.66;;;0.34;63.74
25420;BME280;13354;48.174;11.566;2023-04-05T03:51:55;95992.16;;;0.32;63.57
25420;BME280;13354;48.174;11.566;2023-04-05T03:54:20;95983.28;;;0.35;63.89
25420;BME280;13354;48.174;11.566;2023-04-05T03:56:46;95983.63;;;0.41;63.75
25420;BME280;13354;48.174;11.566;2023-04-05T03:59:11;95986.81;;;0.45;64.23
25420;BME280;13354;48.174;11.566;2023-04-05T04:01:37;95985.28;;;0.42;64.16
25420;BME280;13354;48.174;11.566;2023-04-05T04:04:02;95981.75;;;0.32;64.71
25420;BME280;13354;48.174;11.566;2023-04-05T04:06:29;95980.94;;;0.32;64.62
25420;BME280;13354;48.174;11.566;2023-04-05T04:08:54;95984.84;;;0.26;64.88
25420;BME280;13354;48.174;11.566;2023-04-05T04:11:21;95986.97;;;0.21;65.43
25420;BME280;13354;48.174;11.566;2023-04-05T04:13:46;95988.88;;;0.19;65.52
25420;BME280;13354;48.174;11.566;2023-04-05T04:16:11;95983.53;;;0.20;66.01
25420;BME280;13354;48.174;11.566;2023-04-05T04:18:36;95989.22;;;0.14;65.94
25420;BME280;13354;48.174;11.566;2023-04-05T04:21:02;95984.16;;;0.13;65.80
25420;BME280;13354;48.174;11.566;2023-04-05T04:23:31;95985.34;;;0.09;65.93
25420;BME280;13354;48.174;11.566;2023-04-05T04:25:56;95987.09;;;0.19;66.01
25420;BME280;13354;48.174;11.566;2023-04-05T04:28:21;95986.03;;;0.11;66.09
25420;BME280;13354;48.174;11.566;2023-04-05T04:30:48;95986.75;;;0.13;66.14
25420;BME280;13354;48.174;11.566;2023-04-05T04:33:14;95984.38;;;0.21;65.72
25420;BME280;13354;48.174;11.566;2023-04-05T04:35:41;95982.50;;;0.12;66.10
25420;BME280;13354;48.174;11.566;2023-04-05T04:38:10;95972.53;;;0.17;66.48
25420;BME280;13354;48.174;11.566;2023-04-05T04:40:42;95980.50;;;0.04;66.45
25420;BME280;13354;48.174;11.566;2023-04-05T04:43:11;95980.81;;;0.11;66.35
25420;BME280;13354;48.174;11.566;2023-04-05T04:45:45;95985.81;;;0.03;66.70
25420;BME280;13354;48.174;11.566;2023-04-05T04:48:12;95989.97;;;-0.06;67.07
25420;BME280;13354;48.174;11.566;2023-04-05T04:50:41;95981.22;;;-0.05;66.91
25420;BME280;13354;48.174;11.566;2023-04-05T04:53:07;95987.13;;;-0.03;67.82
25420;BME280;13354;48.174;11.566;2023-04-05T04:55:32;95984.84;;;0.04;67.47
25420;BME280;13354;48.174;11.566;2023-04-05T04:57:57;95982.25;;;0.04;67.25
25420;BME280;13354;48.174;11.566;2023-04-05T05:00:23;95984.38;;;0.10;66.71
25420;BME280;13354;48.174;11.566;2023-04-05T05:02:49;95984.38;;;0.10;67.06
25420;BME280;13354;48.174;11.566;2023-04-05T05:05:14;95987.72;;;0.12;66.43
25420;BME280;13354;48.174;11.566;2023-04-05T05:07:40;95983.19;;;0.14;65.86
25420;BME280;13354;48.174;11.566;2023-04-05T05:10:06;95986.88;;;0.11;65.12
25420;BME280;13354;48.174;11.566;2023-04-05T05:12:31;95981.56;;;0.13;64.55
25420;BME280;13354;48.174;11.566;2023-04-05T05:14:57;95987.34;;;0.16;63.94
25420;BME280;13354;48.174;11.566;2023-04-05T05:17:22;95978.34;;;0.20;64.33
25420;BME280;13354;48.174;11.566;2023-04-05T05:19:48;95979.88;;;0.23;63.03
25420;BME280;13354;48.174;11.566;2023-04-05T05:22:13;95980.72;;;0.12;63.63
25420;BME280;13354;48.174;11.566;2023-04-05T05:24:38;95981.66;;;0.22;62.55
25420;BME280;13354;48.174;11.566;2023-04-05T05:27:03;95980.47;;;0.27;62.34
25420;BME280;13354;48.174;11.566;2023-04-05T05:29:29;95979.97;;;0.33;61.83
25420;BME280;13354;48.174;11.566;2023-04-05T05:31:54;95975.59;;;0.44;61.69
25420;BME280;13354;48.174;11.566;2023-04-05T05:34:19;95981.97;;;0.29;61.45
25420;BME280;13354;48.174;11.566;2023-04-05T05:36:45;95988.03;;;0.30;61.82
25420;BME280;13354;48.174;11.566;2023-04-05T05:39:10;95989.47;;;0.34;61.89
25420;BME280;13354;48.174;11.566;2023-04-05T05:41:36;95987.06;;;0.42;61.97
25420;BME280;13354;48.174;11.566;2023-04-05T05:44:01;95985.16;;;0.44;61.96
25420;BME280;13354;48.174;11.566;2023-04-05T05:46:26;95994.00;;;0.64;62.36
25420;BME280;13354;48.174;11.566;2023-04-05T05:48:51;95998.63;;;0.60;62.38
25420;BME280;13354;48.174;11.566;2023-04-05T05:51:17;95999.59;;;0.59;61.94
25420;BME280;13354;48.174;11.566;2023-04-05T05:53:43;96001.34;;;0.59;61.97
25420;BME280;13354;48.174;11.566;2023-04-05T05:56:08;96000.81;;;0.76;61.93
25420;BME280;13354;48.174;11.566;2023-04-05T05:58:33;96000.41;;;0.92;61.21
25420;BME280;13354;48.174;11.566;2023-04-05T06:00:58;95998.78;;;1.12;60.13
25420;BME280;13354;48.174;11.566;2023-04-05T06:03:24;96003.63;;;1.16;59.86
25420;BME280;13354;48.174;11.566;2023-04-05T06:05:54;96009.53;;;1.39;59.28
25420;BME280;13354;48.174;11.566;2023-04-05T06:08:19;96002.75;;;1.48;60.17
25420;BME280;13354;48.174;11.566;2023-04-05T06:10:44;96005.22;;;1.80;59.21
25420;BME280;13354;48.174;11.566;2023-04-05T06:13:10;96005.78;;;2.05;58.12
25420;BME280;13354;48.174;11.566;2023-04-05T06:15:35;95996.03;;;2.66;57.02
25420;BME280;13354;48.174;11.566;2023-04-05T06:18:00;95998.00;;;3.23;55.79
25420;BME280;13354;48.174;11.566;2023-04-05T06:20:26;95984.97;;;4.17;52.18
25420;BME280;13354;48.174;11.566;2023-04-05T06:22:51;95991.84;;;4.45;51.58
25420;BME280;13354;48.174;11.566;2023-04-05T06:25:16;95987.84;;;5.40;49.64
25420;BME280;13354;48.174;11.566;2023-04-05T06:27:41;95985.38;;;6.51;47.05
25420;BME280;13354;48.174;11.566;2023-04-05T06:30:06;95992.44;;;7.17;45.05
25420;BME280;13354;48.174;11.566;2023-04-05T06:32:32;95985.25;;;7.44;43.92
25420;BME280;13354;48.174;11.566;2023-04-05T06:34:58;95982.81;;;8.14;42.02
25420;BME280;13354;48.174;11.566;2023-04-05T06:37:24;95982.53;;;8.88;40.81
25420;BME280;13354;48.174;11.566;2023-04-05T06:39:49;95980.00;;;9.63;39.07
25420;BME280;13354;48.174;11.566;2023-04-05T06:42:14;95972.78;;;9.95;37.78
25420;BME280;13354;48.174;11.566;2023-04-05T06:44:40;95966.53;;;10.92;36.25
25420;BME280;13354;48.174;11.566;2023-04-05T06:47:05;95974.78;;;10.82;36.59
25420;BME280;13354;48.174;11.566;2023-04-05T06:49:30;95980.59;;;11.28;35.54
25420;BME280;13354;48.174;11.566;2023-04-05T06:51:55;95979.13;;;11.90;34.35
25420;BME280;13354;48.174;11.566;2023-04-05T06:54:21;95974.53;;;12.05;33.58
25420;BME280;13354;48.174;11.566;2023-04-05T06:56:48;95983.44;;;11.27;34.30
25420;BME280;13354;48.174;11.566;2023-04-05T06:59:13;95981.13;;;10.51;35.56
25420;BME280;13354;48.174;11.566;2023-04-05T07:01:38;95988.97;;;9.39;37.14
25420;BME280;13354;48.174;11.566;2023-04-05T07:04:03;95996.97;;;8.13;39.03
25420;BME280;13354;48.174;11.566;2023-04-05T07:06:28;96002.69;;;6.70;41.48
25420;BME280;13354;48.174;11.566;2023-04-05T07:08:54;96005.38;;;6.01;43.74
25420;BME280;13354;48.174;11.566;2023-04-05T07:11:19;96005.16;;;5.51;44.77
25420;BME280;13354;48.174;11.566;2023-04-05T07:13:45;95997.63;;;5.12;45.94
25420;BME280;13354;48.174;11.566;2023-04-05T07:16:10;96005.25;;;4.42;47.24
25420;BME280;13354;48.174;11.566;2023-04-05T07:18:35;96002.88;;;4.11;47.99
25420;BME280;13354;48.174;11.566;2023-04-05T07:21:01;96007.06;;;4.04;48.84
25420;BME280;13354;48.174;11.566;2023-04-05T07:23:27;96011.16;;;3.60;49.85
25420;BME280;13354;48.174;11.566;2023-04-05T07:25:53;96005.00;;;3.42;50.22
25420;BME280;13354;48.174;11.566;2023-04-05T07:28:18;96010.66;;;3.27;50.56
25420;BME280;13354;48.174;11.566;2023-04-05T07:30:43;96012.19;;;3.01;51.64
25420;BME280;13354;48.174;11.566;2023-04-05T07:33:09;96010.81;;;3.06;51.64
25420;BME280;13354;48.174;11.566;2023-04-05T07:35:34;96011.34;;;2.90;51.76
25420;BME280;13354;48.174;11.566;2023-04-05T07:38:00;96013.94;;;2.90;52.29
25420;BME280;13354;48.174;11.566;2023-04-05T07:40:25;96009.22;;;2.65;52.63
25420;BME280;13354;48.174;11.566;2023-04-05T07:42:51;96022.75;;;2.80;52.04
25420;BME280;13354;48.174;11.566;2023-04-05T07:45:16;96014.91;;;2.80;52.12
25420;BME280;13354;48.174;11.566;2023-04-05T07:47:42;96019.59;;;2.76;51.94
25420;BME280;13354;48.174;11.566;2023-04-05T07:50:07;96019.53;;;2.57;51.65
25420;BME280;13354;48.174;11.566;2023-04-05T07:52:34;96016.25;;;2.64;52.08
25420;BME280;13354;48.174;11.566;2023-04-05T07:54:59;96022.97;;;2.57;53.08
25420;BME280;13354;48.174;11.566;2023-04-05T07:57:24;96022.59;;;2.62;52.88
25420;BME280;13354;48.174;11.566;2023-04-05T07:59:49;96023.72;;;2.79;53.16
25420;BME280;13354;48.174;11.566;2023-04-05T08:02:16;96023.44;;;2.82;53.13
25420;BME280;13354;48.174;11.566;2023-04-05T08:04:41;96020.72;;;2.93;52.54
25420;BME280;13354;48.174;11.566;2023-04-05T08:07:07;96022.22;;;2.96;52.78
25420;BME280;13354;48.174;11.566;2023-04-05T08:09:32;96013.16;;;3.00;52.78
25420;BME280;13354;48.174;11.566;2023-04-05T08:11:58;96019.34;;;3.08;52.57
25420;BME280;13354;48.174;11.566;2023-04-05T08:14:23;96023.19;;;3.24;51.88
25420;BME280;13354;48.174;11.566;2023-04-05T08:16:48;96019.47;;;3.26;51.91
25420;BME280;13354;48.174;11.566;2023-04-05T08:19:15;96019.72;;;3.52;50.78
25420;BME280;13354;48.174;11.566;2023-04-05T08:21:41;96024.97;;;3.62;50.43
25420;BME280;13354;48.174;11.566;2023-04-05T08:24:06;96007.50;;;4.00;50.28
25420;BME280;13354;48.174;11.566;2023-04-05T08:26:32;96003.66;;;4.31;49.23
25420;BME280;13354;48.174;11.566;2023-04-05T08:28:57;96006.16;;;5.14;47.37
25420;BME280;13354;48.174;11.566;2023-04-05T08:31:22;96003.13;;;5.45;46.35
25420;BME280;13354;48.174;11.566;2023-04-05T08:33:47;96003.75;;;5.82;46.17
25420;BME280;13354;48.174;11.566;2023-04-05T08:36:12;95992.69;;;6.23;44.46
25420;BME280;13354;48.174;11.566;2023-04-05T08:38:38;96001.38;;;6.66;44.64
25420;BME280;13354;48.174;11.566;2023-04-05T08:46:08;96001.31;;;7.08;42.57
25420;BME280;13354;48.174;11.566;2023-04-05T08:48:34;96001.03;;;7.44;41.87
25420;BME280;13354;48.174;11.566;2023-04-05T08:51:00;96001.84;;;7.69;41.58
25420;BME280;13354;48.174;11.566;2023-04-05T08:53:25;95999.13;;;8.10;41.58
25420;BME280;13354;48.174;11.566;2023-04-05T08:55:50;95998.28;;;8.26;40.60
25420;BME280;13354;48.174;11.566;2023-04-05T08:58:17;95987.28;;;8.61;39.64
25420;BME280;13354;48.174;11.566;2023-04-05T09:00:44;95982.13;;;8.68;38.71
25420;BME280;13354;48.174;11.566;2023-04-05T09:03:14;95985.59;;;8.68;38.13
25420;BME280;13354;48.174;11.566;2023-04-05T09:05:40;95986.84;;;8.50;37.93
25420;BME280;13354;48.174;11.566;2023-04-05T09:08:08;95993.41;;;8.62;38.40
25420;BME280;13354;48.174;11.566;2023-04-05T09:10:34;95992.22;;;8.09;38.25
25420;BME280;13354;48.174;11.566;2023-04-05T09:12:59;95988.94;;;8.62;38.00
25420;BME280;13354;48.174;11.566;2023-04-05T09:15:26;95994.13;;;9.10;36.88
25420;BME280;13354;48.174;11.566;2023-04-05T09:17:51;95985.28;;;9.26;37.42
25420;BME280;13354;48.174;11.566;2023-04-05T09:20:18;95987.91;;;9.49;35.85
25420;BME280;13354;48.174;11.566;2023-04-05T09:22:44;95984.56;;;9.55;36.25
25420;BME280;13354;48.174;11.566;2023-04-05T09:25:10;95992.81;;;9.75;35.46
25420;BME280;13354;48.174;11.566;2023-04-05T09:27:35;95991.94;;;9.59;35.51
25420;BME280;13354;48.174;11.566;2023-04-05T09:30:20;95983.31;;;9.65;36.31
25420;BME280;13354;48.174;11.566;2023-04-05T09:32:46;95982.53;;;9.80;35.25
25420;BME280;13354;48.174;11.566;2023-04-05T09:35:16;95980.44;;;10.05;33.81
25420;BME280;13354;48.174;11.566;2023-04-05T09:37:49;95987.47;;;9.98;33.70
25420;BME280;13354;48.174;11.566;2023-04-05T09:40:15;95995.84;;;9.86;32.09
25420;BME280;13354;48.174;11.566;2023-04-05T09:42:44;95990.63;;;9.40;33.71
25420;BME280;13354;48.174;11.566;2023-04-05T09:45:12;95993.88;;;9.19;34.20
25420;BME280;13354;48.174;11.566;2023-04-05T09:47:38;95993.13;;;9.34;34.53
25420;BME280;13354;48.174;11.566;2023-04-05T09:52:39;95988.91;;;9.25;35.97
25420;BME280;13354;48.174;11.566;2023-04-05T09:55:04;95992.44;;;9.40;36.00
25420;BME280;13354;48.174;11.566;2023-04-05T09:57:35;95990.50;;;9.72;35.16
25420;BME280;13354;48.174;11.566;2023-04-05T10:00:01;95985.13;;;10.03;36.37
25420;BME280;13354;48.174;11.566;2023-04-05T10:02:36;95981.59;;;10.55;35.43
25420;BME280;13354;48.174;11.566;2023-04-05T10:05:10;95979.16;;;10.75;34.55
25420;BME280;13354;48.174;11.566;2023-04-05T10:07:38;95974.75;;;10.97;35.23
25420;BME280;13354;48.174;11.566;2023-04-05T10:10:03;95974.25;;;11.08;33.56
25420;BME280;13354;48.174;11.566;2023-04-05T10:12:28;95975.50;;;10.91;32.59
25420;BME280;13354;48.174;11.566;2023-04-05T10:14:55;95971.28;;;10.45;33.80
25420;BME280;13354;48.174;11.566;2023-04-05T10:17:32;95967.91;;;10.51;34.00
25420;BME280;13354;48.174;11.566;2023-04-05T10:22:38;95969.63;;;10.44;33.33
25420;BME280;13354;48.174;11.566;2023-04-05T10:25:07;95965.81;;;10.98;34.63
25420;BME280;13354;48.174;11.566;2023-04-05T10:27:38;95971.06;;;11.12;33.63
25420;BME280;13354;48.174;11.566;2023-04-05T10:30:06;95970.81;;;10.93;33.61
25420;BME280;13354;48.174;11.566;2023-04-05T10:35:48;95964.63;;;11.43;33.16
25420;BME280;13354;48.174;11.566;2023-04-05T10:40:23;95951.09;;;12.09;32.87
25420;BME280;13354;48.174;11.566;2023-04-05T10:42:54;95952.34;;;12.54;31.80
25420;BME280;13354;48.174;11.566;2023-04-05T10:45:20;95956.13;;;12.32;30.88
25420;BME280;13354;48.174;11.566;2023-04-05T10:50:46;95958.41;;;12.07;32.26
25420;BME280;13354;48.174;11.566;2023-04-05T10:53:11;95957.97;;;11.75;31.48
25420;BME280;13354;48.174;11.566;2023-04-05T10:55:37;95945.94;;;12.01;31.80
25420;BME280;13354;48.174;11.566;2023-04-05T10:58:03;95943.66;;;12.32;31.60
25420;BME280;13354;48.174;11.566;2023-04-05T11:00:28;95940.78;;;12.75;31.28
25420;BME280;13354;48.174;11.566;2023-04-05T11:02:53;95943.09;;;12.37;30.55
25420;BME280;13354;48.174;11.566;2023-04-05T11:05:31;95933.59;;;12.63;31.29
25420;BME280;13354;48.174;11.566;2023-04-05T11:08:04;95939.69;;;12.56;30.72
25420;BME280;13354;48.174;11.566;2023-04-05T11:10:30;95932.66;;;12.90;29.87
25420;BME280;13354;48.174;11.566;2023-04-05T11:20:47;95938.13;;;13.30;28.37
25420;BME280;13354;48.174;11.566;2023-04-05T11:23:15;95935.69;;;13.88;28.20
25420;BME280;13354;48.174;11.566;2023-04-05T11:25:46;95937.25;;;14.22;28.04
25420;BME280;13354;48.174;11.566;2023-04-05T11:28:22;95927.34;;;14.63;27.47
25420;BME280;13354;48.174;11.566;2023-04-05T11:30:48;95928.09;;;14.77;26.75
25420;BME280;13354;48.174;11.566;2023-04-05T11:35:59;95929.16;;;15.14;25.91
25420;BME280;13354;48.174;11.566;2023-04-05T11:38:26;95916.28;;;14.59;26.31
25420;BME280;13354;48.174;11.566;2023-04-05T11:40:51;95919.75;;;15.05;26.49
25420;BME280;13354;48.174;11.566;2023-04-05T11:43:30;95921.16;;;15.14;25.47
25420;BME280;13354;48.174;11.566;2023-04-05T11:46:00;95926.66;;;13.96;26.57
25420;BME280;13354;48.174;11.566;2023-04-05T11:48:25;95929.31;;;13.69;28.12
25420;BME280;13354;48.174;11.566;2023-04-05T11:50:51;95925.84;;;13.62;28.21
25420;BME280;13354;48.174;11.566;2023-04-05T11:53:17;95919.50;;;13.96;28.60
25420;BME280;13354;48.174;11.566;2023-04-05T11:55:44;95912.72;;;14.00;26.98
25420;BME280;13354;48.174;11.566;2023-04-05T12:00:37;95904.22;;;14.43;27.73
25420;BME280;13354;48.174;11.566;2023-04-05T12:03:03;95910.16;;;14.39;27.69
25420;BME280;13354;48.174;11.566;2023-04-05T12:05:43;95911.50;;;14.74;27.55
25420;BME280;13354;48.174;11.566;2023-04-05T12:08:08;95909.56;;;14.43;27.45
25420;BME280;13354;48.174;11.566;2023-04-05T12:10:33;95904.56;;;14.67;26.64
25420;BME280;13354;48.174;11.566;2023-04-05T12:12:59;95913.38;;;14.67;26.99
25420;BME280;13354;48.174;11.566;2023-04-05T12:15:24;95912.50;;;13.95;27.24
25420;BME280;13354;48.174;11.566;2023-04-05T12:17:50;95908.59;;;14.18;28.09
25420;BME280;13354;48.174;11.566;2023-04-05T12:20:16;95901.19;;;14.33;28.48
25420;BME280;13354;48.174;11.566;2023-04-05T12:22:42;95905.94;;;14.11;27.87
25420;BME280;13354;48.174;11.566;2023-04-05T12:25:08;95900.16;;;14.27;27.00
25420;BME280;13354;48.174;11.566;2023-04-05T12:27:33;95903.06;;;14.06;28.37
25420;BME280;13354;48.174;11.566;2023-04-05T12:30:32;95884.19;;;14.21;28.47
25420;BME280;13354;48.174;11.566;2023-04-05T12:32:53;95886.56;;;14.56;29.84
25420;BME280;13354;48.174;11.566;2023-04-05T12:35:20;95887.91;;;14.13;28.77
25420;BME280;13354;48.174;11.566;2023-04-05T12:37:45;95893.94;;;14.60;28.53
25420;BME280;13354;48.174;11.566;2023-04-05T12:40:11;95888.00;;;14.96;28.51
25420;BME280;13354;48.174;11.566;2023-04-05T12:42:37;95891.50;;;15.29;28.64
25420;BME280;13354;48.174;11.566;2023-04-05T12:45:06;95887.19;;;15.28;27.97
25420;BME280;13354;48.174;11.566;2023-04-05T12:47:33;95886.88;;;15.42;27.36
25420;BME280;13354;48.174;11.566;2023-04-05T12:50:09;95890.22;;;15.31;27.37
25420;BME280;13354;48.174;11.566;2023-04-05T12:52:34;95876.75;;;15.51;27.20
25420;BME280;13354;48.174;11.566;2023-04-05T12:55:00;95894.00;;;15.49;26.55
25420;BME280;13354;48.174;11.566;2023-04-05T12:57:29;95881.94;;;15.71;26.80
25420;BME280;13354;48.174;11.566;2023-04-05T12:59:55;95890.16;;;15.13;26.58
25420;BME280;13354;48.174;11.566;2023-04-05T13:02:20;95889.88;;;14.51;27.06
25420;BME280;13354;48.174;11.566;2023-04-05T13:04:45;95885.56;;;13.59;27.06
25420;BME280;13354;48.174;11.566;2023-04-05T13:07:10;95878.97;;;13.54;27.28
25420;BME280;13354;48.174;11.566;2023-04-05T13:09:35;95878.56;;;13.64;26.74
25420;BME280;13354;48.174;11.566;2023-04-05T13:12:01;95866.09;;;13.78;27.47
25420;BME280;13354;48.174;11.566;2023-04-05T13:14:26;95859.69;;;13.99;27.93
25420;BME280;13354;48.174;11.566;2023-04-05T13:16:51;95867.31;;;13.89;28.00
25420;BME280;13354;48.174;11.566;2023-04-05T13:19:16;95864.41;;;14.04;28.39
25420;BME280;13354;48.174;11.566;2023-04-05T13:21:41;95865.34;;;14.29;29.38
25420;BME280;13354;48.174;11.566;2023-04-05T13:24:07;95865.00;;;13.99;28.89
25420;BME280;13354;48.174;11.566;2023-04-05T13:26:32;95865.31;;;13.44;28.53
25420;BME280;13354;48.174;11.566;2023-04-05T13:28:57;95860.78;;;13.45;29.50
25420;BME280;13354;48.174;11.566;2023-04-05T13:31:22;95863.72;;;12.69;28.74
25420;BME280;13354;48.174;11.566;2023-04-05T13:33:47;95862.03;;;12.00;28.77
25420;BME280;13354;48.174;11.566;2023-04-05T13:36:13;95860.34;;;11.92;30.87
25420;BME280;13354;48.174;11.566;2023-04-05T13:38:38;95857.31;;;11.95;30.35
25420;BME280;13354;48.174;11.566;2023-04-05T13:41:03;95857.50;;;12.35;31.29
25420;BME280;13354;48.174;11.566;2023-04-05T13:43:29;95853.59;;;12.31;30.07